sensor_id;sensor_type;location;lat;lon;timestamp;pressure;altitude;pressure_sealevel;temperature;humidity
67109;BME280;54027;50.786;7.058;2023-03-13T00:00:54;100127.59;;;10.94;75.20
67109;BME280;54027;50.786;7.058;2023-03-13T00:03:20;100115.13;;;11.12;74.96
67109;BME280;54027;50.786;7.058;2023-03-13T00:05:45;100116.94;;;11.07;75.28
67109;BME280;54027;50.786;7.058;2023-03-13T00:08:11;100112.63;;;11.09;74.93
67109;BME280;54027;50.786;7.058;2023-03-13T00:10:40;100103.88;;;11.13;74.69
67109;BME280;54027;50.786;7.058;2023-03-13T00:13:06;100110.94;;;11.07;74.66
67109;BME280;54027;50.786;7.058;2023-03-13T00:15:32;100099.75;;;11.05;75.57
67109;BME280;54027;50.786;7.058;2023-03-13T00:17:58;100094.59;;;11.05;75.23
67109;BME280;54027;50.786;7.058;2023-03-13T00:20:23;100089.34;;;11.09;74.84
67109;BME280;54027;50.786;7.058;2023-03-13T00:22:49;100089.41;;;11.05;75.45
67109;BME280;54027;50.786;7.058;2023-03-13T00:25:14;100074.88;;;11.01;74.98
67109;BME280;54027;50.786;7.058;2023-03-13T00:27:40;100085.34;;;10.95;75.30
67109;BME280;54027;50.786;7.058;2023-03-13T00:30:05;100076.88;;;10.87;76.01
67109;BME280;54027;50.786;7.058;2023-03-13T00:32:31;100067.44;;;10.86;75.96
67109;BME280;54027;50.786;7.058;2023-03-13T00:34:56;100058.72;;;10.90;75.59
67109;BME280;54027;50.786;7.058;2023-03-13T00:37:22;100042.34;;;10.89;75.98
67109;BME280;54027;50.786;7.058;2023-03-13T00:39:47;100036.16;;;10.96;76.42
67109;BME280;54027;50.786;7.058;2023-03-13T00:42:13;100017.97;;;11.01;75.65
67109;BME280;54027;50.786;7.058;2023-03-13T00:44:38;100031.72;;;11.01;76.27
67109;BME280;54027;50.786;7.058;2023-03-13T00:47:03;100032.72;;;10.97;77.36
67109;BME280;54027;50.786;7.058;2023-03-13T00:49:31;100022.63;;;10.84;79.58
67109;BME280;54027;50.786;7.058;2023-03-13T00:51:56;100024.59;;;10.72;80.59
67109;BME280;54027;50.786;7.058;2023-03-13T00:54:22;100012.84;;;10.58;82.86
67109;BME280;54027;50.786;7.058;2023-03-13T00:56:47;100004.34;;;10.53;83.03
67109;BME280;54027;50.786;7.058;2023-03-13T00:59:13;100001.94;;;10.44;84.50
67109;BME280;54027;50.786;7.058;2023-03-13T01:01:38;100010.34;;;10.55;84.12
67109;BME280;54027;50.786;7.058;2023-03-13T01:04:06;99994.16;;;10.45;85.31
67109;BME280;54027;50.786;7.058;2023-03-13T01:06:34;99987.38;;;10.41;85.11
67109;BME280;54027;50.786;7.058;2023-03-13T01:09:00;99987.38;;;10.40;85.91
67109;BME280;54027;50.786;7.058;2023-03-13T01:11:28;99985.66;;;10.40;85.68
67109;BME280;54027;50.786;7.058;2023-03-13T01:13:56;99972.63;;;10.46;85.73
67109;BME280;54027;50.786;7.058;2023-03-13T01:16:22;99976.25;;;10.36;86.68
67109;BME280;54027;50.786;7.058;2023-03-13T01:18:50;99967.50;;;10.43;85.84
67109;BME280;54027;50.786;7.058;2023-03-13T01:21:17;99963.00;;;10.53;85.71
67109;BME280;54027;50.786;7.058;2023-03-13T01:23:46;99970.88;;;10.47;85.61
67109;BME280;54027;50.786;7.058;2023-03-13T01:26:12;99961.38;;;10.49;85.26
67109;BME280;54027;50.786;7.058;2023-03-13T01:28:38;99960.38;;;10.56;85.32
67109;BME280;54027;50.786;7.058;2023-03-13T01:31:23;99948.94;;;10.66;85.13
67109;BME280;54027;50.786;7.058;2023-03-13T01:33:51;99953.25;;;10.65;84.85
67109;BME280;54027;50.786;7.058;2023-03-13T01:36:18;99955.81;;;10.65;85.18
67109;BME280;54027;50.786;7.058;2023-03-13T01:38:47;99949.72;;;10.69;85.37
67109;BME280;54027;50.786;7.058;2023-03-13T01:41:12;99938.44;;;10.73;85.15
67109;BME280;54027;50.786;7.058;2023-03-13T01:43:38;99943.44;;;10.81;84.61
67109;BME280;54027;50.786;7.058;2023-03-13T01:51:34;99918.88;;;10.99;83.55
67109;BME280;54027;50.786;7.058;2023-03-13T01:54:11;99911.91;;;11.02;82.78
67109;BME280;54027;50.786;7.058;2023-03-13T01:56:53;99910.19;;;11.03;82.43
67109;BME280;54027;50.786;7.058;2023-03-13T01:59:25;99895.47;;;11.05;82.86
67109;BME280;54027;50.786;7.058;2023-03-13T02:01:54;99903.13;;;11.09;82.85
67109;BME280;54027;50.786;7.058;2023-03-13T02:04:22;99887.56;;;11.11;82.95
67109;BME280;54027;50.786;7.058;2023-03-13T02:06:50;99891.19;;;11.04;82.79
67109;BME280;54027;50.786;7.058;2023-03-13T02:09:19;99879.88;;;11.08;83.17
67109;BME280;54027;50.786;7.058;2023-03-13T02:11:48;99872.81;;;11.14;82.70
67109;BME280;54027;50.786;7.058;2023-03-13T02:14:19;99870.38;;;11.08;83.02
67109;BME280;54027;50.786;7.058;2023-03-13T02:16:45;99857.53;;;11.05;83.02
67109;BME280;54027;50.786;7.058;2023-03-13T02:22:31;99846.97;;;11.13;82.46
67109;BME280;54027;50.786;7.058;2023-03-13T02:27:55;99840.81;;;11.18;82.71
67109;BME280;54027;50.786;7.058;2023-03-13T02:30:22;99828.88;;;11.13;83.34
67109;BME280;54027;50.786;7.058;2023-03-13T02:32:47;99836.84;;;11.05;84.14
67109;BME280;54027;50.786;7.058;2023-03-13T02:35:16;99832.69;;;11.00;85.42
67109;BME280;54027;50.786;7.058;2023-03-13T02:37:46;99825.00;;;10.97;85.34
67109;BME280;54027;50.786;7.058;2023-03-13T02:40:15;99815.38;;;11.02;86.23
67109;BME280;54027;50.786;7.058;2023-03-13T02:42:43;99811.28;;;10.93;87.97
67109;BME280;54027;50.786;7.058;2023-03-13T02:45:13;99805.34;;;10.90;89.33
67109;BME280;54027;50.786;7.058;2023-03-13T02:47:39;99806.34;;;10.84;90.33
67109;BME280;54027;50.786;7.058;2023-03-13T02:50:05;99803.97;;;10.76;91.39
67109;BME280;54027;50.786;7.058;2023-03-13T02:52:58;99793.63;;;10.76;92.17
67109;BME280;54027;50.786;7.058;2023-03-13T02:55:35;99787.69;;;10.71;92.36
67109;BME280;54027;50.786;7.058;2023-03-13T02:58:03;99792.91;;;10.70;92.23
67109;BME280;54027;50.786;7.058;2023-03-13T03:00:29;99791.41;;;10.61;92.71
67109;BME280;54027;50.786;7.058;2023-03-13T03:02:54;99787.13;;;10.60;93.42
67109;BME280;54027;50.786;7.058;2023-03-13T03:05:20;99788.97;;;10.55;93.44
67109;BME280;54027;50.786;7.058;2023-03-13T03:07:47;99795.94;;;10.52;93.97
67109;BME280;54027;50.786;7.058;2023-03-13T03:10:12;99795.13;;;10.50;94.08
67109;BME280;54027;50.786;7.058;2023-03-13T03:12:38;99789.84;;;10.54;93.74
67109;BME280;54027;50.786;7.058;2023-03-13T03:15:03;99775.19;;;10.56;93.77
67109;BME280;54027;50.786;7.058;2023-03-13T03:17:29;99769.16;;;10.56;93.38
67109;BME280;54027;50.786;7.058;2023-03-13T03:19:55;99754.31;;;10.62;92.98
67109;BME280;54027;50.786;7.058;2023-03-13T03:22:21;99763.72;;;10.66;93.23
67109;BME280;54027;50.786;7.058;2023-03-13T03:24:46;99768.06;;;10.64;92.48
67109;BME280;54027;50.786;7.058;2023-03-13T03:27:12;99761.97;;;10.67;93.13
67109;BME280;54027;50.786;7.058;2023-03-13T03:29:37;99747.97;;;10.75;92.08
67109;BME280;54027;50.786;7.058;2023-03-13T03:32:03;99746.19;;;10.77;92.11
67109;BME280;54027;50.786;7.058;2023-03-13T03:34:28;99753.19;;;10.74;92.36
67109;BME280;54027;50.786;7.058;2023-03-13T03:36:54;99758.38;;;10.72;92.21
67109;BME280;54027;50.786;7.058;2023-03-13T03:39:19;99768.63;;;10.77;91.20
67109;BME280;54027;50.786;7.058;2023-03-13T03:41:44;99766.94;;;10.74;91.86
67109;BME280;54027;50.786;7.058;2023-03-13T03:44:10;99764.28;;;10.77;91.99
67109;BME280;54027;50.786;7.058;2023-03-13T03:46:35;99767.53;;;10.86;91.46
67109;BME280;54027;50.786;7.058;2023-03-13T03:49:00;99762.25;;;10.90;91.19
67109;BME280;54027;50.786;7.058;2023-03-13T03:51:26;99761.53;;;10.85;90.99
67109;BME280;54027;50.786;7.058;2023-03-13T03:53:51;99764.13;;;10.84;91.47
67109;BME280;54027;50.786;7.058;2023-03-13T03:56:17;99754.66;;;10.84;92.12
67109;BME280;54027;50.786;7.058;2023-03-13T03:58:42;99746.94;;;10.83;91.21
67109;BME280;54027;50.786;7.058;2023-03-13T04:01:08;99736.28;;;10.95;91.47
67109;BME280;54027;50.786;7.058;2023-03-13T04:03:33;99743.19;;;10.94;91.33
67109;BME280;54027;50.786;7.058;2023-03-13T04:05:59;99748.28;;;10.97;91.95
67109;BME280;54027;50.786;7.058;2023-03-13T04:08:24;99743.19;;;10.94;91.50
67109;BME280;54027;50.786;7.058;2023-03-13T04:10:50;99732.59;;;11.03;90.93
67109;BME280;54027;50.786;7.058;2023-03-13T04:13:16;99714.53;;;11.02;91.69
67109;BME280;54027;50.786;7.058;2023-03-13T04:15:41;99711.00;;;11.04;91.34
67109;BME280;54027;50.786;7.058;2023-03-13T04:18:06;99705.41;;;11.21;90.28
67109;BME280;54027;50.786;7.058;2023-03-13T04:20:32;99712.16;;;11.25;90.47
67109;BME280;54027;50.786;7.058;2023-03-13T04:22:58;99709.63;;;11.23;90.22
67109;BME280;54027;50.786;7.058;2023-03-13T04:25:23;99707.22;;;11.17;90.39
67109;BME280;54027;50.786;7.058;2023-03-13T04:27:49;99702.91;;;11.18;91.17
67109;BME280;54027;50.786;7.058;2023-03-13T04:30:15;99701.06;;;11.21;90.62
67109;BME280;54027;50.786;7.058;2023-03-13T04:32:40;99699.44;;;11.17;91.61
67109;BME280;54027;50.786;7.058;2023-03-13T04:35:06;99689.22;;;11.13;91.86
67109;BME280;54027;50.786;7.058;2023-03-13T04:37:31;99684.09;;;11.11;92.03
67109;BME280;54027;50.786;7.058;2023-03-13T04:39:57;99683.25;;;11.11;91.99
67109;BME280;54027;50.786;7.058;2023-03-13T04:42:22;99681.44;;;11.14;92.53
67109;BME280;54027;50.786;7.058;2023-03-13T04:44:47;99686.59;;;11.14;92.76
67109;BME280;54027;50.786;7.058;2023-03-13T04:47:13;99695.16;;;11.16;92.60
67109;BME280;54027;50.786;7.058;2023-03-13T04:49:38;99702.13;;;11.14;92.79
67109;BME280;54027;50.786;7.058;2023-03-13T04:52:04;99707.28;;;11.14;93.07
67109;BME280;54027;50.786;7.058;2023-03-13T04:54:29;99691.69;;;11.17;93.02
67109;BME280;54027;50.786;7.058;2023-03-13T04:56:55;99692.41;;;11.22;92.85
67109;BME280;54027;50.786;7.058;2023-03-13T04:59:20;99674.19;;;11.27;92.34
67109;BME280;54027;50.786;7.058;2023-03-13T05:01:45;99677.22;;;11.41;92.51
67109;BME280;54027;50.786;7.058;2023-03-13T05:04:11;99678.50;;;11.57;91.71
67109;BME280;54027;50.786;7.058;2023-03-13T05:06:37;99661.00;;;11.65;91.62
67109;BME280;54027;50.786;7.058;2023-03-13T05:09:03;99651.81;;;11.83;90.93
67109;BME280;54027;50.786;7.058;2023-03-13T05:11:29;99650.94;;;11.84;90.58
67109;BME280;54027;50.786;7.058;2023-03-13T05:13:54;99648.97;;;11.90;89.83
67109;BME280;54027;50.786;7.058;2023-03-13T05:16:19;99648.97;;;11.90;89.73
67109;BME280;54027;50.786;7.058;2023-03-13T05:18:45;99651.56;;;11.90;90.16
67109;BME280;54027;50.786;7.058;2023-03-13T05:21:10;99649.63;;;11.97;89.78
67109;BME280;54027;50.786;7.058;2023-03-13T05:23:36;99658.06;;;12.04;89.18
67109;BME280;54027;50.786;7.058;2023-03-13T05:26:01;99661.63;;;12.00;89.89
67109;BME280;54027;50.786;7.058;2023-03-13T05:28:27;99653.78;;;12.03;89.88
67109;BME280;54027;50.786;7.058;2023-03-13T05:30:52;99657.81;;;12.11;89.94
67109;BME280;54027;50.786;7.058;2023-03-13T05:33:18;99649.84;;;12.17;89.89
67109;BME280;54027;50.786;7.058;2023-03-13T05:35:44;99643.56;;;12.24;89.44
67109;BME280;54027;50.786;7.058;2023-03-13T05:38:10;99639.13;;;12.28;89.27
67109;BME280;54027;50.786;7.058;2023-03-13T05:40:35;99643.09;;;12.38;88.78
67109;BME280;54027;50.786;7.058;2023-03-13T05:43:01;99643.16;;;12.36;88.83
67109;BME280;54027;50.786;7.058;2023-03-13T05:45:26;99640.25;;;12.45;88.40
67109;BME280;54027;50.786;7.058;2023-03-13T05:47:52;99642.88;;;12.44;88.61
67109;BME280;54027;50.786;7.058;2023-03-13T05:50:17;99635.13;;;12.44;88.51
67109;BME280;54027;50.786;7.058;2023-03-13T05:52:43;99637.25;;;12.58;87.92
67109;BME280;54027;50.786;7.058;2023-03-13T05:55:08;99639.00;;;12.57;87.72
67109;BME280;54027;50.786;7.058;2023-03-13T05:57:33;99631.25;;;12.56;88.11
67109;BME280;54027;50.786;7.058;2023-03-13T05:59:59;99619.78;;;12.63;87.56
67109;BME280;54027;50.786;7.058;2023-03-13T06:02:25;99631.88;;;12.64;87.89
67109;BME280;54027;50.786;7.058;2023-03-13T06:04:50;99626.69;;;12.64;87.98
67109;BME280;54027;50.786;7.058;2023-03-13T06:07:16;99640.63;;;12.60;88.24
67109;BME280;54027;50.786;7.058;2023-03-13T06:09:41;99628.31;;;12.66;87.94
67109;BME280;54027;50.786;7.058;2023-03-13T06:12:08;99641.09;;;12.71;87.81
67109;BME280;54027;50.786;7.058;2023-03-13T06:14:33;99639.03;;;12.80;87.29
67109;BME280;54027;50.786;7.058;2023-03-13T06:16:59;99631.78;;;12.90;86.54
67109;BME280;54027;50.786;7.058;2023-03-13T06:19:24;99603.81;;;12.99;86.32
67109;BME280;54027;50.786;7.058;2023-03-13T06:21:50;99606.31;;;13.01;85.97
67109;BME280;54027;50.786;7.058;2023-03-13T06:24:16;99601.13;;;13.01;86.15
67109;BME280;54027;50.786;7.058;2023-03-13T06:26:42;99587.09;;;13.07;85.63
67109;BME280;54027;50.786;7.058;2023-03-13T06:29:08;99602.00;;;13.02;85.91
67109;BME280;54027;50.786;7.058;2023-03-13T06:31:34;99631.91;;;13.12;85.57
67109;BME280;54027;50.786;7.058;2023-03-13T06:33:59;99649.13;;;13.13;85.32
67109;BME280;54027;50.786;7.058;2023-03-13T06:36:24;99636.69;;;13.22;85.07
67109;BME280;54027;50.786;7.058;2023-03-13T06:38:50;99640.41;;;13.38;84.56
67109;BME280;54027;50.786;7.058;2023-03-13T06:41:15;99642.81;;;13.43;84.37
67109;BME280;54027;50.786;7.058;2023-03-13T06:43:41;99653.81;;;13.49;84.18
67109;BME280;54027;50.786;7.058;2023-03-13T06:46:07;99652.78;;;13.53;83.71
67109;BME280;54027;50.786;7.058;2023-03-13T06:48:33;99657.84;;;13.56;83.93
67109;BME280;54027;50.786;7.058;2023-03-13T06:50:59;99662.94;;;13.60;83.56
67109;BME280;54027;50.786;7.058;2023-03-13T06:53:24;99662.78;;;13.64;83.05
67109;BME280;54027;50.786;7.058;2023-03-13T06:55:50;99669.59;;;13.67;83.11
67109;BME280;54027;50.786;7.058;2023-03-13T06:58:16;99674.91;;;13.64;83.04
67109;BME280;54027;50.786;7.058;2023-03-13T07:00:42;99675.56;;;13.69;83.00
67109;BME280;54027;50.786;7.058;2023-03-13T07:03:09;99673.53;;;13.77;82.54
67109;BME280;54027;50.786;7.058;2023-03-13T07:05:35;99670.03;;;13.78;82.56
67109;BME280;54027;50.786;7.058;2023-03-13T07:08:00;99657.00;;;13.79;82.10
67109;BME280;54027;50.786;7.058;2023-03-13T07:10:25;99674.00;;;13.86;81.71
67109;BME280;54027;50.786;7.058;2023-03-13T07:12:51;99672.38;;;13.84;81.70
67109;BME280;54027;50.786;7.058;2023-03-13T07:15:16;99674.09;;;13.85;81.52
67109;BME280;54027;50.786;7.058;2023-03-13T07:17:41;99673.19;;;13.86;81.27
67109;BME280;54027;50.786;7.058;2023-03-13T07:20:07;99670.34;;;13.92;80.39
67109;BME280;54027;50.786;7.058;2023-03-13T07:22:35;99672.03;;;13.93;79.90
67109;BME280;54027;50.786;7.058;2023-03-13T07:25:01;99665.94;;;13.94;79.69
67109;BME280;54027;50.786;7.058;2023-03-13T07:27:26;99674.38;;;13.99;79.12
67109;BME280;54027;50.786;7.058;2023-03-13T07:29:51;99667.06;;;14.08;77.72
67109;BME280;54027;50.786;7.058;2023-03-13T07:32:17;99665.06;;;14.15;77.24
67109;BME280;54027;50.786;7.058;2023-03-13T07:34:42;99661.56;;;14.16;76.82
67109;BME280;54027;50.786;7.058;2023-03-13T07:37:12;99661.06;;;14.28;75.89
67109;BME280;54027;50.786;7.058;2023-03-13T07:39:38;99680.81;;;14.32;76.14
67109;BME280;54027;50.786;7.058;2023-03-13T07:42:03;99668.59;;;14.34;75.94
67109;BME280;54027;50.786;7.058;2023-03-13T07:44:29;99666.72;;;14.39;75.40
67109;BME280;54027;50.786;7.058;2023-03-13T07:46:54;99655.66;;;14.54;74.57
67109;BME280;54027;50.786;7.058;2023-03-13T07:49:19;99639.78;;;14.60;74.54
67109;BME280;54027;50.786;7.058;2023-03-13T07:51:45;99636.03;;;14.68;74.79
67109;BME280;54027;50.786;7.058;2023-03-13T07:54:12;99626.97;;;14.76;74.13
67109;BME280;54027;50.786;7.058;2023-03-13T07:56:38;99603.94;;;14.87;73.17
67109;BME280;54027;50.786;7.058;2023-03-13T07:59:04;99610.56;;;14.94;72.96
67109;BME280;54027;50.786;7.058;2023-03-13T08:01:29;99606.84;;;15.00;72.91
67109;BME280;54027;50.786;7.058;2023-03-13T08:03:55;99611.13;;;15.01;72.61
67109;BME280;54027;50.786;7.058;2023-03-13T08:06:23;99599.03;;;15.00;72.20
67109;BME280;54027;50.786;7.058;2023-03-13T08:08:50;99596.25;;;15.04;70.93
67109;BME280;54027;50.786;7.058;2023-03-13T08:11:18;99591.72;;;15.08;71.04
67109;BME280;54027;50.786;7.058;2023-03-13T08:13:44;99584.84;;;15.07;70.51
67109;BME280;54027;50.786;7.058;2023-03-13T08:16:12;99591.16;;;15.01;70.76
67109;BME280;54027;50.786;7.058;2023-03-13T08:18:43;99587.22;;;14.93;71.36
67109;BME280;54027;50.786;7.058;2023-03-13T08:21:13;99591.50;;;14.94;70.75
67109;BME280;54027;50.786;7.058;2023-03-13T08:23:40;99593.34;;;14.92;71.45
67109;BME280;54027;50.786;7.058;2023-03-13T08:26:09;99598.81;;;14.86;71.91
67109;BME280;54027;50.786;7.058;2023-03-13T08:28:36;99583.97;;;14.88;70.63
67109;BME280;54027;50.786;7.058;2023-03-13T08:31:08;99584.63;;;14.93;70.85
67109;BME280;54027;50.786;7.058;2023-03-13T08:33:34;99593.34;;;14.92;70.86
67109;BME280;54027;50.786;7.058;2023-03-13T08:36:11;99578.28;;;14.98;70.47
67109;BME280;54027;50.786;7.058;2023-03-13T08:38:37;99584.41;;;14.97;70.80
67109;BME280;54027;50.786;7.058;2023-03-13T08:41:03;99588.72;;;14.98;71.06
67109;BME280;54027;50.786;7.058;2023-03-13T08:43:28;99586.16;;;14.97;71.33
67109;BME280;54027;50.786;7.058;2023-03-13T08:45:54;99596.66;;;14.95;72.13
67109;BME280;54027;50.786;7.058;2023-03-13T08:48:21;99610.84;;;14.88;74.08
67109;BME280;54027;50.786;7.058;2023-03-13T08:50:46;99617.63;;;14.72;74.57
67109;BME280;54027;50.786;7.058;2023-03-13T08:53:11;99612.28;;;14.55;76.28
67109;BME280;54027;50.786;7.058;2023-03-13T08:55:37;99615.22;;;14.47;76.35
67109;BME280;54027;50.786;7.058;2023-03-13T08:58:02;99608.34;;;14.46;75.74
67109;BME280;54027;50.786;7.058;2023-03-13T09:00:28;99599.16;;;14.58;75.53
67109;BME280;54027;50.786;7.058;2023-03-13T09:02:56;99591.91;;;14.66;75.56
67109;BME280;54027;50.786;7.058;2023-03-13T09:05:21;99588.03;;;14.75;74.80
67109;BME280;54027;50.786;7.058;2023-03-13T09:07:47;99590.38;;;14.81;74.47
67109;BME280;54027;50.786;7.058;2023-03-13T09:10:12;99601.19;;;14.90;74.71
67109;BME280;54027;50.786;7.058;2023-03-13T09:12:37;99592.94;;;15.01;74.18
67109;BME280;54027;50.786;7.058;2023-03-13T09:15:03;99596.25;;;15.04;74.76
67109;BME280;54027;50.786;7.058;2023-03-13T09:17:29;99588.03;;;15.13;73.84
67109;BME280;54027;50.786;7.058;2023-03-13T09:19:54;99586.81;;;15.20;73.99
67109;BME280;54027;50.786;7.058;2023-03-13T09:22:19;99587.66;;;15.21;74.01
67109;BME280;54027;50.786;7.058;2023-03-13T09:24:45;99586.47;;;15.28;73.81
67109;BME280;54027;50.786;7.058;2023-03-13T09:27:10;99599.06;;;15.37;73.83
67109;BME280;54027;50.786;7.058;2023-03-13T09:29:35;99593.72;;;15.40;73.99
67109;BME280;54027;50.786;7.058;2023-03-13T09:32:04;99589.97;;;15.46;73.85
67109;BME280;54027;50.786;7.058;2023-03-13T09:34:29;99578.03;;;15.59;73.62
67109;BME280;54027;50.786;7.058;2023-03-13T09:36:56;99569.31;;;15.79;72.68
67109;BME280;54027;50.786;7.058;2023-03-13T09:39:21;99566.34;;;15.86;72.37
67109;BME280;54027;50.786;7.058;2023-03-13T09:42:08;99560.28;;;15.86;72.15
67109;BME280;54027;50.786;7.058;2023-03-13T09:44:43;99565.94;;;15.76;73.05
67109;BME280;54027;50.786;7.058;2023-03-13T09:47:24;99574.44;;;15.61;73.79
67109;BME280;54027;50.786;7.058;2023-03-13T09:50:17;99569.75;;;15.51;73.66
67109;BME280;54027;50.786;7.058;2023-03-13T09:52:49;99582.16;;;15.46;74.37
67109;BME280;54027;50.786;7.058;2023-03-13T10:02:46;99588.69;;;15.36;74.78
67109;BME280;54027;50.786;7.058;2023-03-13T10:05:25;99574.56;;;15.41;74.93
67109;BME280;54027;50.786;7.058;2023-03-13T10:10:44;99551.31;;;15.91;73.52
67109;BME280;54027;50.786;7.058;2023-03-13T10:13:35;99536.59;;;16.07;73.41
67109;BME280;54027;50.786;7.058;2023-03-13T10:16:09;99528.00;;;16.22;72.56
67109;BME280;54027;50.786;7.058;2023-03-13T10:18:36;99529.31;;;16.31;72.72
67109;BME280;54027;50.786;7.058;2023-03-13T10:21:20;99520.09;;;16.41;72.06
67109;BME280;54027;50.786;7.058;2023-03-13T10:23:56;99513.50;;;16.67;71.18
67109;BME280;54027;50.786;7.058;2023-03-13T10:26:28;99503.94;;;16.83;70.56
67109;BME280;54027;50.786;7.058;2023-03-13T10:28:55;99501.69;;;16.93;70.68
67109;BME280;54027;50.786;7.058;2023-03-13T10:31:41;99512.63;;;16.83;70.28
67109;BME280;54027;50.786;7.058;2023-03-13T10:34:13;99515.78;;;16.73;70.56
67109;BME280;54027;50.786;7.058;2023-03-13T10:36:46;99512.28;;;16.57;70.77
67109;BME280;54027;50.786;7.058;2023-03-13T10:39:26;99520.91;;;16.42;71.39
67109;BME280;54027;50.786;7.058;2023-03-13T10:41:57;99519.88;;;16.28;72.10
67109;BME280;54027;50.786;7.058;2023-03-13T10:44:30;99531.53;;;16.21;72.29
67109;BME280;54027;50.786;7.058;2023-03-13T10:47:00;99505.25;;;16.26;71.85
67109;BME280;54027;50.786;7.058;2023-03-13T10:49:27;99505.66;;;16.34;72.24
67109;BME280;54027;50.786;7.058;2023-03-13T10:51:54;99506.28;;;16.39;72.10
67109;BME280;54027;50.786;7.058;2023-03-13T10:54:33;99489.22;;;16.49;71.06
67109;BME280;54027;50.786;7.058;2023-03-13T10:57:26;99481.34;;;16.66;70.01
67109;BME280;54027;50.786;7.058;2023-03-13T10:59:53;99468.81;;;16.73;70.14
67109;BME280;54027;50.786;7.058;2023-03-13T11:02:38;99460.44;;;16.83;69.06
67109;BME280;54027;50.786;7.058;2023-03-13T11:05:39;99437.34;;;17.07;67.84
67109;BME280;54027;50.786;7.058;2023-03-13T11:08:17;99428.69;;;17.36;67.56
67109;BME280;54027;50.786;7.058;2023-03-13T11:13:27;99395.53;;;17.82;65.59
67109;BME280;54027;50.786;7.058;2023-03-13T11:15:57;99381.84;;;18.07;65.72
67109;BME280;54027;50.786;7.058;2023-03-13T11:21:04;99358.78;;;18.00;64.57
67109;BME280;54027;50.786;7.058;2023-03-13T11:23:44;99351.38;;;18.20;64.23
67109;BME280;54027;50.786;7.058;2023-03-13T11:26:50;99303.38;;;18.21;62.91
67109;BME280;54027;50.786;7.058;2023-03-13T11:31:50;99307.28;;;18.69;62.80
67109;BME280;54027;50.786;7.058;2023-03-13T11:34:45;99288.00;;;18.84;62.40
67109;BME280;54027;50.786;7.058;2023-03-13T11:37:14;99293.63;;;18.64;62.50
67109;BME280;54027;50.786;7.058;2023-03-13T11:40:02;99292.22;;;18.73;62.22
67109;BME280;54027;50.786;7.058;2023-03-13T11:48:08;99253.16;;;18.96;61.31
67109;BME280;54027;50.786;7.058;2023-03-13T11:56:26;99256.84;;;18.53;61.15
67109;BME280;54027;50.786;7.058;2023-03-13T12:01:38;99235.16;;;18.78;60.70
67109;BME280;54027;50.786;7.058;2023-03-13T12:04:22;99205.94;;;18.84;59.80
67109;BME280;54027;50.786;7.058;2023-03-13T12:06:53;99206.41;;;18.90;59.64
67109;BME280;54027;50.786;7.058;2023-03-13T12:09:27;99211.13;;;18.98;60.08
67109;BME280;54027;50.786;7.058;2023-03-13T12:12:02;99195.22;;;19.01;59.09
67109;BME280;54027;50.786;7.058;2023-03-13T12:14:42;99207.59;;;18.99;59.44
67109;BME280;54027;50.786;7.058;2023-03-13T12:17:17;99204.53;;;18.92;59.12
67109;BME280;54027;50.786;7.058;2023-03-13T12:19:54;99204.41;;;18.94;59.50
67109;BME280;54027;50.786;7.058;2023-03-13T12:22:45;99198.88;;;18.98;58.98
67109;BME280;54027;50.786;7.058;2023-03-13T12:25:19;99190.44;;;18.81;59.02
67109;BME280;54027;50.786;7.058;2023-03-13T12:27:51;99191.78;;;18.74;59.60
67109;BME280;54027;50.786;7.058;2023-03-13T12:30:41;99191.03;;;18.59;58.66
67109;BME280;54027;50.786;7.058;2023-03-13T12:33:20;99201.69;;;18.56;59.86
67109;BME280;54027;50.786;7.058;2023-03-13T12:36:16;99223.28;;;18.33;60.22
67109;BME280;54027;50.786;7.058;2023-03-13T12:38:49;99218.72;;;18.36;60.70
67109;BME280;54027;50.786;7.058;2023-03-13T12:41:42;99198.63;;;18.37;59.80
67109;BME280;54027;50.786;7.058;2023-03-13T12:44:16;99180.19;;;18.38;58.87
67109;BME280;54027;50.786;7.058;2023-03-13T12:46:44;99180.44;;;18.21;59.66
67109;BME280;54027;50.786;7.058;2023-03-13T12:54:51;99173.66;;;18.58;59.70
67109;BME280;54027;50.786;7.058;2023-03-13T12:59:57;99185.53;;;18.37;60.38
67109;BME280;54027;50.786;7.058;2023-03-13T13:02:30;99194.38;;;18.22;60.81
67109;BME280;54027;50.786;7.058;2023-03-13T13:04:58;99198.91;;;18.06;61.56
67109;BME280;54027;50.786;7.058;2023-03-13T13:07:36;99202.41;;;17.92;61.60
67109;BME280;54027;50.786;7.058;2023-03-13T13:10:15;99218.09;;;17.78;62.49
67109;BME280;54027;50.786;7.058;2023-03-13T13:12:46;99240.31;;;17.57;63.30
67109;BME280;54027;50.786;7.058;2023-03-13T13:15:28;99240.00;;;17.47;63.59
67109;BME280;54027;50.786;7.058;2023-03-13T13:18:39;99251.28;;;17.33;64.64
67109;BME280;54027;50.786;7.058;2023-03-13T13:23:44;99259.28;;;17.16;65.46
67109;BME280;54027;50.786;7.058;2023-03-13T13:28:56;99190.72;;;17.69;63.82
67109;BME280;54027;50.786;7.058;2023-03-13T13:39:51;99116.22;;;18.82;60.96
67109;BME280;54027;50.786;7.058;2023-03-13T13:44:59;99105.97;;;18.79;61.30
67109;BME280;54027;50.786;7.058;2023-03-13T13:47:27;99124.34;;;18.52;61.51
67109;BME280;54027;50.786;7.058;2023-03-13T13:49:55;99128.44;;;18.17;62.50
67109;BME280;54027;50.786;7.058;2023-03-13T13:52:40;99145.88;;;18.04;62.85
67109;BME280;54027;50.786;7.058;2023-03-13T13:57:51;99142.53;;;18.02;63.64
67109;BME280;54027;50.786;7.058;2023-03-13T14:00:28;99151.56;;;17.96;63.73
67109;BME280;54027;50.786;7.058;2023-03-13T14:02:57;99126.72;;;18.03;63.29
67109;BME280;54027;50.786;7.058;2023-03-13T14:05:28;99121.94;;;18.10;63.44
67109;BME280;54027;50.786;7.058;2023-03-13T14:08:02;99113.91;;;18.13;63.05
67109;BME280;54027;50.786;7.058;2023-03-13T14:10:41;99104.28;;;18.13;63.10
67109;BME280;54027;50.786;7.058;2023-03-13T14:13:19;99115.88;;;18.09;63.38
67109;BME280;54027;50.786;7.058;2023-03-13T14:15:49;99089.47;;;18.00;63.46
67109;BME280;54027;50.786;7.058;2023-03-13T14:18:19;99096.47;;;17.99;63.54
67109;BME280;54027;50.786;7.058;2023-03-13T14:20:59;99102.66;;;17.98;63.44